sensor_id;sensor_type;location;lat;lon;timestamp;temperature;humidity
23267;DHT22;11802;53.160;8.214;2022-07-01T00:00:27;19.10;99.90
23267;DHT22;11802;53.160;8.214;2022-07-01T00:02:52;19.10;99.90
23267;DHT22;11802;53.160;8.214;2022-07-01T00:05:18;19.10;99.90
23267;DHT22;11802;53.160;8.214;2022-07-01T00:07:43;19.10;99.90
23267;DHT22;11802;53.160;8.214;2022-07-01T00:10:09;19.20;99.90
23267;DHT22;11802;53.160;8.214;2022-07-01T00:12:35;19.10;99.90
23267;DHT22;11802;53.160;8.214;2022-07-01T00:15:00;19.20;99.90
23267;DHT22;11802;53.160;8.214;2022-07-01T00:17:26;19.30;99.90
23267;DHT22;11802;53.160;8.214;2022-07-01T00:19:51;19.20;99.90
23267;DHT22;11802;53.160;8.214;2022-07-01T00:22:17;19.10;99.90
23267;DHT22;11802;53.160;8.214;2022-07-01T00:24:43;19.00;99.90
23267;DHT22;11802;53.160;8.214;2022-07-01T00:27:10;19.00;99.90
23267;DHT22;11802;53.160;8.214;2022-07-01T00:29:36;19.00;99.90
23267;DHT22;11802;53.160;8.214;2022-07-01T00:32:02;18.80;99.90
23267;DHT22;11802;53.160;8.214;2022-07-01T00:34:27;18.80;99.90
23267;DHT22;11802;53.160;8.214;2022-07-01T00:36:53;18.80;99.90
23267;DHT22;11802;53.160;8.214;2022-07-01T00:39:18;18.90;99.90
23267;DHT22;11802;53.160;8.214;2022-07-01T00:41:44;18.90;99.90
23267;DHT22;11802;53.160;8.214;2022-07-01T00:44:19;18.90;99.90
23267;DHT22;11802;53.160;8.214;2022-07-01T00:46:45;18.80;99.90
23267;DHT22;11802;53.160;8.214;2022-07-01T00:49:11;18.80;99.90
23267;DHT22;11802;53.160;8.214;2022-07-01T00:51:37;18.60;99.90
23267;DHT22;11802;53.160;8.214;2022-07-01T00:54:02;18.70;99.90
23267;DHT22;11802;53.160;8.214;2022-07-01T00:56:28;18.60;99.90
23267;DHT22;11802;53.160;8.214;2022-07-01T00:58:55;18.60;99.90
23267;DHT22;11802;53.160;8.214;2022-07-01T01:01:21;18.60;99.90
23267;DHT22;11802;53.160;8.214;2022-07-01T01:03:48;18.40;99.90
23267;DHT22;11802;53.160;8.214;2022-07-01T01:06:15;18.20;99.90
23267;DHT22;11802;53.160;8.214;2022-07-01T01:08:41;18.20;99.90
23267;DHT22;11802;53.160;8.214;2022-07-01T01:11:07;18.20;99.90
23267;DHT22;11802;53.160;8.214;2022-07-01T01:13:33;18.30;99.90
23267;DHT22;11802;53.160;8.214;2022-07-01T01:15:58;18.10;99.90
23267;DHT22;11802;53.160;8.214;2022-07-01T01:18:24;18.10;99.90
23267;DHT22;11802;53.160;8.214;2022-07-01T01:20:51;18.00;99.90
23267;DHT22;11802;53.160;8.214;2022-07-01T01:23:17;17.90;99.90
23267;DHT22;11802;53.160;8.214;2022-07-01T01:25:42;17.90;99.90
23267;DHT22;11802;53.160;8.214;2022-07-01T01:28:09;17.80;99.90
23267;DHT22;11802;53.160;8.214;2022-07-01T01:30:35;17.80;99.90
23267;DHT22;11802;53.160;8.214;2022-07-01T01:33:07;17.70;99.90
23267;DHT22;11802;53.160;8.214;2022-07-01T01:35:37;17.70;99.90
23267;DHT22;11802;53.160;8.214;2022-07-01T01:38:09;17.60;99.90
23267;DHT22;11802;53.160;8.214;2022-07-01T01:40:34;17.60;99.90
23267;DHT22;11802;53.160;8.214;2022-07-01T01:43:00;17.60;99.90
23267;DHT22;11802;53.160;8.214;2022-07-01T01:45:25;17.50;99.90
23267;DHT22;11802;53.160;8.214;2022-07-01T01:47:51;17.30;99.90
23267;DHT22;11802;53.160;8.214;2022-07-01T01:50:17;17.40;99.90
23267;DHT22;11802;53.160;8.214;2022-07-01T01:52:43;17.40;99.90
23267;DHT22;11802;53.160;8.214;2022-07-01T01:55:09;17.40;99.90
23267;DHT22;11802;53.160;8.214;2022-07-01T01:57:34;17.40;99.90
23267;DHT22;11802;53.160;8.214;2022-07-01T02:00:00;17.30;99.90
23267;DHT22;11802;53.160;8.214;2022-07-01T02:02:26;17.20;99.90
23267;DHT22;11802;53.160;8.214;2022-07-01T02:04:51;17.20;99.90
23267;DHT22;11802;53.160;8.214;2022-07-01T02:07:17;17.10;99.90
23267;DHT22;11802;53.160;8.214;2022-07-01T02:09:43;17.00;99.90
23267;DHT22;11802;53.160;8.214;2022-07-01T02:12:08;17.00;99.90
23267;DHT22;11802;53.160;8.214;2022-07-01T02:14:34;16.90;99.90
23267;DHT22;11802;53.160;8.214;2022-07-01T02:17:00;16.90;99.90
23267;DHT22;11802;53.160;8.214;2022-07-01T02:19:25;17.00;99.90
23267;DHT22;11802;53.160;8.214;2022-07-01T02:21:51;17.00;99.90
23267;DHT22;11802;53.160;8.214;2022-07-01T02:24:17;17.00;99.90
23267;DHT22;11802;53.160;8.214;2022-07-01T02:26:42;16.90;99.90
23267;DHT22;11802;53.160;8.214;2022-07-01T02:29:08;16.90;99.90
23267;DHT22;11802;53.160;8.214;2022-07-01T02:31:33;16.90;99.90
23267;DHT22;11802;53.160;8.214;2022-07-01T02:33:59;16.90;99.90
23267;DHT22;11802;53.160;8.214;2022-07-01T02:36:25;16.90;99.90
23267;DHT22;11802;53.160;8.214;2022-07-01T02:38:50;16.90;99.90
23267;DHT22;11802;53.160;8.214;2022-07-01T02:41:16;16.80;99.90
23267;DHT22;11802;53.160;8.214;2022-07-01T02:43:41;16.80;99.90
23267;DHT22;11802;53.160;8.214;2022-07-01T02:46:07;16.80;99.90
23267;DHT22;11802;53.160;8.214;2022-07-01T02:48:32;16.70;99.90
23267;DHT22;11802;53.160;8.214;2022-07-01T02:50:58;16.70;99.90
23267;DHT22;11802;53.160;8.214;2022-07-01T02:53:24;16.70;99.90
23267;DHT22;11802;53.160;8.214;2022-07-01T02:55:49;16.70;99.90
23267;DHT22;11802;53.160;8.214;2022-07-01T02:58:15;16.70;99.90
23267;DHT22;11802;53.160;8.214;2022-07-01T03:00:41;16.70;99.90
23267;DHT22;11802;53.160;8.214;2022-07-01T03:03:06;16.60;99.90
23267;DHT22;11802;53.160;8.214;2022-07-01T03:05:32;16.50;99.90
23267;DHT22;11802;53.160;8.214;2022-07-01T03:07:57;16.50;99.90
23267;DHT22;11802;53.160;8.214;2022-07-01T03:10:23;16.60;99.90
23267;DHT22;11802;53.160;8.214;2022-07-01T03:12:49;16.50;99.90
23267;DHT22;11802;53.160;8.214;2022-07-01T03:15:15;16.60;99.90
23267;DHT22;11802;53.160;8.214;2022-07-01T03:17:43;16.60;99.90
23267;DHT22;11802;53.160;8.214;2022-07-01T03:20:11;16.60;99.90
23267;DHT22;11802;53.160;8.214;2022-07-01T03:22:37;16.50;99.90
23267;DHT22;11802;53.160;8.214;2022-07-01T03:25:04;16.60;99.90
23267;DHT22;11802;53.160;8.214;2022-07-01T03:27:31;16.60;99.90
23267;DHT22;11802;53.160;8.214;2022-07-01T03:29:57;16.60;99.90
23267;DHT22;11802;53.160;8.214;2022-07-01T03:32:22;16.60;99.90
23267;DHT22;11802;53.160;8.214;2022-07-01T03:34:49;16.50;99.90
23267;DHT22;11802;53.160;8.214;2022-07-01T03:37:16;16.60;99.90
23267;DHT22;11802;53.160;8.214;2022-07-01T03:39:43;16.60;99.90
23267;DHT22;11802;53.160;8.214;2022-07-01T03:42:09;16.60;99.90
23267;DHT22;11802;53.160;8.214;2022-07-01T03:44:36;16.60;99.90
23267;DHT22;11802;53.160;8.214;2022-07-01T03:47:03;16.60;99.90
23267;DHT22;11802;53.160;8.214;2022-07-01T03:49:31;16.60;99.90
23267;DHT22;11802;53.160;8.214;2022-07-01T03:51:57;16.60;99.90
23267;DHT22;11802;53.160;8.214;2022-07-01T03:54:22;16.60;99.90
23267;DHT22;11802;53.160;8.214;2022-07-01T03:57:17;16.60;99.90
23267;DHT22;11802;53.160;8.214;2022-07-01T03:59:43;16.60;99.90
23267;DHT22;11802;53.160;8.214;2022-07-01T04:02:08;16.70;99.90
23267;DHT22;11802;53.160;8.214;2022-07-01T04:04:35;16.80;99.90
23267;DHT22;11802;53.160;8.214;2022-07-01T04:07:01;16.60;99.90
23267;DHT22;11802;53.160;8.214;2022-07-01T04:09:28;16.60;99.90
23267;DHT22;11802;53.160;8.214;2022-07-01T04:11:54;16.60;99.90
23267;DHT22;11802;53.160;8.214;2022-07-01T04:14:20;16.60;99.90
23267;DHT22;11802;53.160;8.214;2022-07-01T04:16:46;16.50;99.90
23267;DHT22;11802;53.160;8.214;2022-07-01T04:19:14;16.50;99.90
23267;DHT22;11802;53.160;8.214;2022-07-01T04:21:40;16.50;99.90
23267;DHT22;11802;53.160;8.214;2022-07-01T04:24:24;16.50;99.90
23267;DHT22;11802;53.160;8.214;2022-07-01T04:26:50;16.50;99.90
23267;DHT22;11802;53.160;8.214;2022-07-01T04:29:17;16.50;99.90
23267;DHT22;11802;53.160;8.214;2022-07-01T04:31:42;16.50;99.90
23267;DHT22;11802;53.160;8.214;2022-07-01T04:34:08;16.40;99.90
23267;DHT22;11802;53.160;8.214;2022-07-01T04:36:34;16.40;99.90
23267;DHT22;11802;53.160;8.214;2022-07-01T04:39:01;16.30;99.90
23267;DHT22;11802;53.160;8.214;2022-07-01T04:41:27;16.40;99.90
23267;DHT22;11802;53.160;8.214;2022-07-01T04:44:11;16.40;99.90
23267;DHT22;11802;53.160;8.214;2022-07-01T04:46:36;16.30;99.90
23267;DHT22;11802;53.160;8.214;2022-07-01T04:49:02;16.40;99.90
23267;DHT22;11802;53.160;8.214;2022-07-01T04:51:28;16.40;99.90
23267;DHT22;11802;53.160;8.214;2022-07-01T04:53:54;16.40;99.90
23267;DHT22;11802;53.160;8.214;2022-07-01T04:56:20;16.40;99.90
23267;DHT22;11802;53.160;8.214;2022-07-01T04:58:45;16.40;99.90
23267;DHT22;11802;53.160;8.214;2022-07-01T05:01:11;16.50;99.90
23267;DHT22;11802;53.160;8.214;2022-07-01T05:03:36;16.50;99.90
23267;DHT22;11802;53.160;8.214;2022-07-01T05:06:02;16.60;99.90
23267;DHT22;11802;53.160;8.214;2022-07-01T05:08:28;16.40;99.90
23267;DHT22;11802;53.160;8.214;2022-07-01T05:10:53;16.50;99.90
23267;DHT22;11802;53.160;8.214;2022-07-01T05:13:19;16.60;99.90
23267;DHT22;11802;53.160;8.214;2022-07-01T05:15:44;16.60;99.90
23267;DHT22;11802;53.160;8.214;2022-07-01T05:18:10;16.60;99.90
23267;DHT22;11802;53.160;8.214;2022-07-01T05:20:54;16.50;99.90
23267;DHT22;11802;53.160;8.214;2022-07-01T05:23:38;16.50;99.90
23267;DHT22;11802;53.160;8.214;2022-07-01T05:26:04;16.50;99.90
23267;DHT22;11802;53.160;8.214;2022-07-01T05:28:29;16.50;99.90
23267;DHT22;11802;53.160;8.214;2022-07-01T05:30:55;16.50;99.90
23267;DHT22;11802;53.160;8.214;2022-07-01T05:33:21;16.60;99.90
23267;DHT22;11802;53.160;8.214;2022-07-01T05:35:47;16.60;99.90
23267;DHT22;11802;53.160;8.214;2022-07-01T05:38:13;16.60;99.90
23267;DHT22;11802;53.160;8.214;2022-07-01T05:40:38;16.50;99.90
23267;DHT22;11802;53.160;8.214;2022-07-01T05:43:04;16.50;99.90
23267;DHT22;11802;53.160;8.214;2022-07-01T05:45:30;16.50;99.90
23267;DHT22;11802;53.160;8.214;2022-07-01T05:47:55;16.60;99.90
23267;DHT22;11802;53.160;8.214;2022-07-01T05:50:22;16.70;99.90
23267;DHT22;11802;53.160;8.214;2022-07-01T05:52:48;16.70;99.90
23267;DHT22;11802;53.160;8.214;2022-07-01T05:55:13;16.70;99.90
23267;DHT22;11802;53.160;8.214;2022-07-01T05:57:39;16.60;99.90
23267;DHT22;11802;53.160;8.214;2022-07-01T06:00:05;16.70;99.90
23267;DHT22;11802;53.160;8.214;2022-07-01T06:02:31;16.70;99.90
23267;DHT22;11802;53.160;8.214;2022-07-01T06:04:56;16.70;99.90
23267;DHT22;11802;53.160;8.214;2022-07-01T06:07:24;16.70;99.90
23267;DHT22;11802;53.160;8.214;2022-07-01T06:09:50;16.70;99.90
23267;DHT22;11802;53.160;8.214;2022-07-01T06:12:15;16.80;99.90
23267;DHT22;11802;53.160;8.214;2022-07-01T06:14:41;16.90;99.90
23267;DHT22;11802;53.160;8.214;2022-07-01T06:17:07;17.00;99.90
23267;DHT22;11802;53.160;8.214;2022-07-01T06:19:34;17.00;99.90
23267;DHT22;11802;53.160;8.214;2022-07-01T06:22:00;17.10;99.90
23267;DHT22;11802;53.160;8.214;2022-07-01T06:24:25;16.90;99.90
23267;DHT22;11802;53.160;8.214;2022-07-01T06:26:51;17.00;99.90
23267;DHT22;11802;53.160;8.214;2022-07-01T06:29:17;17.00;99.90
23267;DHT22;11802;53.160;8.214;2022-07-01T06:31:42;17.00;99.90
23267;DHT22;11802;53.160;8.214;2022-07-01T06:34:08;17.10;99.90
23267;DHT22;11802;53.160;8.214;2022-07-01T06:36:33;17.10;99.90
23267;DHT22;11802;53.160;8.214;2022-07-01T06:38:58;17.20;99.90
23267;DHT22;11802;53.160;8.214;2022-07-01T06:41:24;17.30;99.90
23267;DHT22;11802;53.160;8.214;2022-07-01T06:44:00;17.50;99.90
23267;DHT22;11802;53.160;8.214;2022-07-01T06:46:26;17.70;99.90
23267;DHT22;11802;53.160;8.214;2022-07-01T06:48:52;17.90;99.90
23267;DHT22;11802;53.160;8.214;2022-07-01T06:51:18;17.90;99.90
23267;DHT22;11802;53.160;8.214;2022-07-01T06:53:44;18.00;99.90
23267;DHT22;11802;53.160;8.214;2022-07-01T06:56:12;18.00;99.90
23267;DHT22;11802;53.160;8.214;2022-07-01T06:58:39;18.30;99.90
23267;DHT22;11802;53.160;8.214;2022-07-01T07:01:04;18.50;99.90
23267;DHT22;11802;53.160;8.214;2022-07-01T07:03:30;18.50;99.90
23267;DHT22;11802;53.160;8.214;2022-07-01T07:05:58;18.30;99.90
23267;DHT22;11802;53.160;8.214;2022-07-01T07:08:25;18.00;99.90
23267;DHT22;11802;53.160;8.214;2022-07-01T07:10:51;17.90;99.90
23267;DHT22;11802;53.160;8.214;2022-07-01T07:13:16;17.60;99.90
23267;DHT22;11802;53.160;8.214;2022-07-01T07:15:42;17.60;99.90
23267;DHT22;11802;53.160;8.214;2022-07-01T07:18:08;17.40;99.90
23267;DHT22;11802;53.160;8.214;2022-07-01T07:20:34;17.60;99.90
23267;DHT22;11802;53.160;8.214;2022-07-01T07:23:00;17.60;99.90
23267;DHT22;11802;53.160;8.214;2022-07-01T07:25:25;17.50;99.90
23267;DHT22;11802;53.160;8.214;2022-07-01T07:27:51;17.50;99.90
23267;DHT22;11802;53.160;8.214;2022-07-01T07:30:18;17.50;99.90
23267;DHT22;11802;53.160;8.214;2022-07-01T07:32:44;17.50;99.90
23267;DHT22;11802;53.160;8.214;2022-07-01T07:35:10;17.40;99.90
23267;DHT22;11802;53.160;8.214;2022-07-01T07:37:36;17.40;99.90
23267;DHT22;11802;53.160;8.214;2022-07-01T07:40:03;17.30;99.90
23267;DHT22;11802;53.160;8.214;2022-07-01T07:42:29;17.30;99.90
23267;DHT22;11802;53.160;8.214;2022-07-01T07:44:55;17.30;99.90
23267;DHT22;11802;53.160;8.214;2022-07-01T07:47:20;17.30;99.90
23267;DHT22;11802;53.160;8.214;2022-07-01T07:49:46;17.50;99.90
23267;DHT22;11802;53.160;8.214;2022-07-01T07:52:12;17.60;99.90
23267;DHT22;11802;53.160;8.214;2022-07-01T07:54:38;17.80;99.90
23267;DHT22;11802;53.160;8.214;2022-07-01T07:57:05;17.70;99.90
23267;DHT22;11802;53.160;8.214;2022-07-01T07:59:30;17.80;99.90
23267;DHT22;11802;53.160;8.214;2022-07-01T08:01:56;17.80;99.90
23267;DHT22;11802;53.160;8.214;2022-07-01T08:04:22;17.70;99.90
23267;DHT22;11802;53.160;8.214;2022-07-01T08:06:47;17.80;99.90
23267;DHT22;11802;53.160;8.214;2022-07-01T08:09:13;17.90;99.90
23267;DHT22;11802;53.160;8.214;2022-07-01T08:11:38;18.00;99.90
23267;DHT22;11802;53.160;8.214;2022-07-01T08:14:04;17.80;99.90
23267;DHT22;11802;53.160;8.214;2022-07-01T08:16:30;17.80;99.90
23267;DHT22;11802;53.160;8.214;2022-07-01T08:18:55;17.70;99.90
23267;DHT22;11802;53.160;8.214;2022-07-01T08:21:21;17.70;99.90
23267;DHT22;11802;53.160;8.214;2022-07-01T08:23:47;17.80;99.90
23267;DHT22;11802;53.160;8.214;2022-07-01T08:26:13;17.90;99.90
23267;DHT22;11802;53.160;8.214;2022-07-01T08:28:40;17.80;99.90
23267;DHT22;11802;53.160;8.214;2022-07-01T08:31:06;17.80;99.90
23267;DHT22;11802;53.160;8.214;2022-07-01T08:33:32;18.20;99.90
23267;DHT22;11802;53.160;8.214;2022-07-01T08:35:57;18.30;99.90
23267;DHT22;11802;53.160;8.214;2022-07-01T08:38:23;18.50;99.90
23267;DHT22;11802;53.160;8.214;2022-07-01T08:40:48;18.40;99.90
23267;DHT22;11802;53.160;8.214;2022-07-01T08:43:14;18.30;99.90
23267;DHT22;11802;53.160;8.214;2022-07-01T08:45:40;18.30;99.90
23267;DHT22;11802;53.160;8.214;2022-07-01T08:48:06;18.20;99.90
23267;DHT22;11802;53.160;8.214;2022-07-01T08:50:34;18.20;99.90
23267;DHT22;11802;53.160;8.214;2022-07-01T08:53:00;18.50;99.90
23267;DHT22;11802;53.160;8.214;2022-07-01T08:55:27;18.70;99.90
23267;DHT22;11802;53.160;8.214;2022-07-01T08:57:52;18.70;99.90
23267;DHT22;11802;53.160;8.214;2022-07-01T09:00:18;18.60;99.90
23267;DHT22;11802;53.160;8.214;2022-07-01T09:02:58;18.50;99.90
23267;DHT22;11802;53.160;8.214;2022-07-01T09:05:25;18.30;99.90
23267;DHT22;11802;53.160;8.214;2022-07-01T09:07:57;18.30;99.90
23267;DHT22;11802;53.160;8.214;2022-07-01T09:10:23;18.40;99.90
23267;DHT22;11802;53.160;8.214;2022-07-01T09:12:49;18.40;99.90
23267;DHT22;11802;53.160;8.214;2022-07-01T09:15:30;18.40;99.90
23267;DHT22;11802;53.160;8.214;2022-07-01T09:18:06;18.50;99.90
23267;DHT22;11802;53.160;8.214;2022-07-01T09:20:36;18.60;99.90
23267;DHT22;11802;53.160;8.214;2022-07-01T09:23:08;18.70;99.90
23267;DHT22;11802;53.160;8.214;2022-07-01T09:25:48;18.90;99.90
23267;DHT22;11802;53.160;8.214;2022-07-01T09:28:15;19.00;99.90
23267;DHT22;11802;53.160;8.214;2022-07-01T09:30:46;19.00;99.90
23267;DHT22;11802;53.160;8.214;2022-07-01T09:33:14;19.10;99.90
23267;DHT22;11802;53.160;8.214;2022-07-01T09:35:42;19.20;99.90
23267;DHT22;11802;53.160;8.214;2022-07-01T09:38:14;19.20;99.90
23267;DHT22;11802;53.160;8.214;2022-07-01T09:43:26;19.60;99.90
23267;DHT22;11802;53.160;8.214;2022-07-01T09:46:25;19.60;99.90
23267;DHT22;11802;53.160;8.214;2022-07-01T09:48:45;19.70;99.90
23267;DHT22;11802;53.160;8.214;2022-07-01T09:51:15;20.00;99.90
23267;DHT22;11802;53.160;8.214;2022-07-01T09:53:41;20.30;99.90
23267;DHT22;11802;53.160;8.214;2022-07-01T09:56:07;20.40;99.90
23267;DHT22;11802;53.160;8.214;2022-07-01T09:58:33;20.40;99.90
23267;DHT22;11802;53.160;8.214;2022-07-01T10:00:59;20.70;99.90
23267;DHT22;11802;53.160;8.214;2022-07-01T10:03:26;20.60;99.90
23267;DHT22;11802;53.160;8.214;2022-07-01T10:06:03;20.40;99.90
23267;DHT22;11802;53.160;8.214;2022-07-01T10:08:48;20.30;99.90
23267;DHT22;11802;53.160;8.214;2022-07-01T10:13:57;20.50;99.90
23267;DHT22;11802;53.160;8.214;2022-07-01T10:16:24;20.30;99.90
23267;DHT22;11802;53.160;8.214;2022-07-01T10:18:51;20.00;99.90
23267;DHT22;11802;53.160;8.214;2022-07-01T10:21:30;20.20;99.90
23267;DHT22;11802;53.160;8.214;2022-07-01T10:24:16;20.20;99.90
23267;DHT22;11802;53.160;8.214;2022-07-01T10:26:42;20.20;99.90
23267;DHT22;11802;53.160;8.214;2022-07-01T10:29:28;20.50;99.90
23267;DHT22;11802;53.160;8.214;2022-07-01T10:31:58;20.80;99.90
23267;DHT22;11802;53.160;8.214;2022-07-01T10:34:37;20.90;99.90
23267;DHT22;11802;53.160;8.214;2022-07-01T10:37:05;21.50;99.90
23267;DHT22;11802;53.160;8.214;2022-07-01T10:40:01;21.80;99.90
23267;DHT22;11802;53.160;8.214;2022-07-01T10:42:37;22.50;99.90
23267;DHT22;11802;53.160;8.214;2022-07-01T10:45:17;22.60;99.90
23267;DHT22;11802;53.160;8.214;2022-07-01T10:47:42;22.60;99.90
23267;DHT22;11802;53.160;8.214;2022-07-01T10:50:15;22.90;99.90
23267;DHT22;11802;53.160;8.214;2022-07-01T10:53:03;23.10;99.90
23267;DHT22;11802;53.160;8.214;2022-07-01T10:55:40;22.80;99.90
23267;DHT22;11802;53.160;8.214;2022-07-01T10:58:06;21.70;99.90
23267;DHT22;11802;53.160;8.214;2022-07-01T11:00:33;21.70;99.90
23267;DHT22;11802;53.160;8.214;2022-07-01T11:03:13;22.30;99.90
23267;DHT22;11802;53.160;8.214;2022-07-01T11:05:40;22.80;99.90
23267;DHT22;11802;53.160;8.214;2022-07-01T11:08:07;23.00;99.90
23267;DHT22;11802;53.160;8.214;2022-07-01T11:10:33;23.50;99.90
23267;DHT22;11802;53.160;8.214;2022-07-01T11:13:00;23.70;99.90
23267;DHT22;11802;53.160;8.214;2022-07-01T11:15:28;24.00;99.90
23267;DHT22;11802;53.160;8.214;2022-07-01T11:17:56;24.20;99.90
23267;DHT22;11802;53.160;8.214;2022-07-01T11:20:22;24.70;99.90
23267;DHT22;11802;53.160;8.214;2022-07-01T11:22:49;24.50;99.90
23267;DHT22;11802;53.160;8.214;2022-07-01T11:25:17;24.00;99.90
23267;DHT22;11802;53.160;8.214;2022-07-01T11:27:48;23.90;99.90
23267;DHT22;11802;53.160;8.214;2022-07-01T11:30:14;23.80;99.90
23267;DHT22;11802;53.160;8.214;2022-07-01T11:32:46;24.50;99.90
23267;DHT22;11802;53.160;8.214;2022-07-01T11:35:21;25.30;99.90
23267;DHT22;11802;53.160;8.214;2022-07-01T11:38:06;25.40;99.90
23267;DHT22;11802;53.160;8.214;2022-07-01T11:40:51;25.10;99.90
23267;DHT22;11802;53.160;8.214;2022-07-01T11:43:25;25.20;99.90
23267;DHT22;11802;53.160;8.214;2022-07-01T11:45:52;25.40;99.90
23267;DHT22;11802;53.160;8.214;2022-07-01T11:48:29;26.20;99.90
23267;DHT22;11802;53.160;8.214;2022-07-01T11:50:54;26.60;99.90
23267;DHT22;11802;53.160;8.214;2022-07-01T11:53:20;27.20;99.90
23267;DHT22;11802;53.160;8.214;2022-07-01T11:55:45;27.10;99.90
23267;DHT22;11802;53.160;8.214;2022-07-01T11:58:11;27.30;99.90
23267;DHT22;11802;53.160;8.214;2022-07-01T12:00:36;27.40;99.90
23267;DHT22;11802;53.160;8.214;2022-07-01T12:03:03;27.50;99.90
23267;DHT22;11802;53.160;8.214;2022-07-01T12:05:28;27.00;99.90
23267;DHT22;11802;53.160;8.214;2022-07-01T12:07:54;27.50;99.90
23267;DHT22;11802;53.160;8.214;2022-07-01T12:10:24;27.10;99.90
23267;DHT22;11802;53.160;8.214;2022-07-01T12:12:50;27.20;99.90
23267;DHT22;11802;53.160;8.214;2022-07-01T12:15:16;26.50;99.90
23267;DHT22;11802;53.160;8.214;2022-07-01T12:17:42;26.70;99.90
23267;DHT22;11802;53.160;8.214;2022-07-01T12:20:08;26.00;99.90
23267;DHT22;11802;53.160;8.214;2022-07-01T12:22:34;25.90;99.90
23267;DHT22;11802;53.160;8.214;2022-07-01T12:25:08;26.30;99.90
23267;DHT22;11802;53.160;8.214;2022-07-01T12:30:23;25.90;99.90
23267;DHT22;11802;53.160;8.214;2022-07-01T12:32:49;26.00;99.90
23267;DHT22;11802;53.160;8.214;2022-07-01T12:35:23;25.90;99.90
23267;DHT22;11802;53.160;8.214;2022-07-01T12:40:37;25.00;99.90
23267;DHT22;11802;53.160;8.214;2022-07-01T12:43:03;25.20;99.90
23267;DHT22;11802;53.160;8.214;2022-07-01T12:45:32;25.30;99.90
23267;DHT22;11802;53.160;8.214;2022-07-01T12:50:29;25.30;99.90
23267;DHT22;11802;53.160;8.214;2022-07-01T12:53:11;25.00;99.90
23267;DHT22;11802;53.160;8.214;2022-07-01T12:55:56;25.20;99.90
23267;DHT22;11802;53.160;8.214;2022-07-01T12:58:41;24.70;99.90
23267;DHT22;11802;53.160;8.214;2022-07-01T13:01:06;25.00;99.90
23267;DHT22;11802;53.160;8.214;2022-07-01T13:03:32;25.00;99.90
23267;DHT22;11802;53.160;8.214;2022-07-01T13:05:57;24.10;99.90
23267;DHT22;11802;53.160;8.214;2022-07-01T13:08:23;23.90;99.90
23267;DHT22;11802;53.160;8.214;2022-07-01T13:10:49;24.00;99.90
23267;DHT22;11802;53.160;8.214;2022-07-01T13:13:16;24.20;99.90
23267;DHT22;11802;53.160;8.214;2022-07-01T13:15:45;24.20;99.90
23267;DHT22;11802;53.160;8.214;2022-07-01T13:18:11;24.60;99.90
23267;DHT22;11802;53.160;8.214;2022-07-01T13:23:14;25.60;99.90
23267;DHT22;11802;53.160;8.214;2022-07-01T13:25:40;26.00;99.90
23267;DHT22;11802;53.160;8.214;2022-07-01T13:28:18;26.20;99.90
23267;DHT22;11802;53.160;8.214;2022-07-01T13:31:05;26.20;99.90
23267;DHT22;11802;53.160;8.214;2022-07-01T13:37:15;25.40;99.90
23267;DHT22;11802;53.160;8.214;2022-07-01T13:39:41;25.30;99.90
23267;DHT22;11802;53.160;8.214;2022-07-01T13:42:06;24.60;99.90
23267;DHT22;11802;53.160;8.214;2022-07-01T13:44:32;24.60;99.90
23267;DHT22;11802;53.160;8.214;2022-07-01T13:46:59;24.90;99.90
23267;DHT22;11802;53.160;8.214;2022-07-01T13:49:25;24.60;99.90
23267;DHT22;11802;53.160;8.214;2022-07-01T13:51:50;24.40;99.90
23267;DHT22;11802;53.160;8.214;2022-07-01T13:54:16;24.50;99.90
23267;DHT22;11802;53.160;8.214;2022-07-01T13:56:41;24.30;99.90
23267;DHT22;11802;53.160;8.214;2022-07-01T13:59:07;24.20;99.90
23267;DHT22;11802;53.160;8.214;2022-07-01T14:01:34;24.80;99.90
23267;DHT22;11802;53.160;8.214;2022-07-01T14:04:00;25.30;99.90
23267;DHT22;11802;53.160;8.214;2022-07-01T14:06:25;25.60;99.90
23267;DHT22;11802;53.160;8.214;2022-07-01T14:08:51;25.90;99.90
23267;DHT22;11802;53.160;8.214;2022-07-01T14:11:16;25.80;99.90
23267;DHT22;11802;53.160;8.214;2022-07-01T14:13:42;25.80;99.90
23267;DHT22;11802;53.160;8.214;2022-07-01T14:16:08;25.90;99.90
23267;DHT22;11802;53.160;8.214;2022-07-01T14:18:34;26.30;99.90
23267;DHT22;11802;53.160;8.214;2022-07-01T14:21:03;26.50;99.90
23267;DHT22;11802;53.160;8.214;2022-07-01T14:23:29;26.40;99.90
23267;DHT22;11802;53.160;8.214;2022-07-01T14:25:55;26.20;99.90
23267;DHT22;11802;53.160;8.214;2022-07-01T14:28:21;25.30;99.90
23267;DHT22;11802;53.160;8.214;2022-07-01T14:30:47;25.40;99.90
23267;DHT22;11802;53.160;8.214;2022-07-01T14:33:13;25.50;99.90
23267;DHT22;11802;53.160;8.214;2022-07-01T14:35:38;25.40;99.90
23267;DHT22;11802;53.160;8.214;2022-07-01T14:38:04;25.60;99.90
23267;DHT22;11802;53.160;8.214;2022-07-01T14:40:31;25.40;99.90
23267;DHT22;11802;53.160;8.214;2022-07-01T14:42:58;25.70;99.90
23267;DHT22;11802;53.160;8.214;2022-07-01T14:45:23;25.40;99.90
23267;DHT22;11802;53.160;8.214;2022-07-01T14:47:49;25.40;99.90
23267;DHT22;11802;53.160;8.214;2022-07-01T14:50:14;25.40;99.90
23267;DHT22;11802;53.160;8.214;2022-07-01T14:52:40;25.30;99.90
23267;DHT22;11802;53.160;8.214;2022-07-01T14:55:06;25.70;99.90
23267;DHT22;11802;53.160;8.214;2022-07-01T14:57:32;26.20;99.90
23267;DHT22;11802;53.160;8.214;2022-07-01T14:59:57;26.50;99.90
23267;DHT22;11802;53.160;8.214;2022-07-01T15:02:24;26.30;99.90
23267;DHT22;11802;53.160;8.214;2022-07-01T15:04:49;26.10;99.90
23267;DHT22;11802;53.160;8.214;2022-07-01T15:07:15;25.30;99.90
23267;DHT22;11802;53.160;8.214;2022-07-01T15:09:41;25.40;99.90
23267;DHT22;11802;53.160;8.214;2022-07-01T15:12:07;25.50;99.90
23267;DHT22;11802;53.160;8.214;2022-07-01T15:14:33;25.40;99.90
23267;DHT22;11802;53.160;8.214;2022-07-01T15:16:59;25.00;99.90
23267;DHT22;11802;53.160;8.214;2022-07-01T15:19:25;24.70;99.90
23267;DHT22;11802;53.160;8.214;2022-07-01T15:21:52;24.50;99.90
23267;DHT22;11802;53.160;8.214;2022-07-01T15:24:18;24.30;99.90
23267;DHT22;11802;53.160;8.214;2022-07-01T15:26:44;23.90;99.90
23267;DHT22;11802;53.160;8.214;2022-07-01T15:29:09;24.00;99.90
23267;DHT22;11802;53.160;8.214;2022-07-01T15:31:35;23.80;99.90
23267;DHT22;11802;53.160;8.214;2022-07-01T15:34:00;23.90;99.90
23267;DHT22;11802;53.160;8.214;2022-07-01T15:36:26;23.90;99.90
23267;DHT22;11802;53.160;8.214;2022-07-01T15:38:51;23.80;99.90
23267;DHT22;11802;53.160;8.214;2022-07-01T15:41:20;23.80;99.90
23267;DHT22;11802;53.160;8.214;2022-07-01T15:43:46;23.90;99.90
23267;DHT22;11802;53.160;8.214;2022-07-01T15:46:11;24.00;99.90
23267;DHT22;11802;53.160;8.214;2022-07-01T15:48:38;24.00;99.90
23267;DHT22;11802;53.160;8.214;2022-07-01T15:51:04;24.00;99.90